sensor_id;sensor_type;location;lat;lon;timestamp;P1;durP1;ratioP1;P2;durP2;ratioP2
64342;SDS011;50675;53.530;-6.312;2022-09-03T00:01:33;28.33;;;16.98;;
64342;SDS011;50675;53.530;-6.312;2022-09-03T00:04:05;24.17;;;16.35;;
64342;SDS011;50675;53.530;-6.312;2022-09-03T00:06:43;25.77;;;16.65;;
64342;SDS011;50675;53.530;-6.312;2022-09-03T00:12:10;21.73;;;15.50;;
64342;SDS011;50675;53.530;-6.312;2022-09-03T00:14:42;24.08;;;15.18;;
64342;SDS011;50675;53.530;-6.312;2022-09-03T00:17:29;24.77;;;15.32;;
64342;SDS011;50675;53.530;-6.312;2022-09-03T00:22:31;23.38;;;13.73;;
64342;SDS011;50675;53.530;-6.312;2022-09-03T00:25:02;23.20;;;14.48;;
64342;SDS011;50675;53.530;-6.312;2022-09-03T00:27:32;22.63;;;13.38;;
64342;SDS011;50675;53.530;-6.312;2022-09-03T00:30:04;18.42;;;11.98;;
64342;SDS011;50675;53.530;-6.312;2022-09-03T00:32:47;15.25;;;8.95;;
64342;SDS011;50675;53.530;-6.312;2022-09-03T00:35:21;13.32;;;7.90;;
64342;SDS011;50675;53.530;-6.312;2022-09-03T00:37:51;11.65;;;6.75;;
64342;SDS011;50675;53.530;-6.312;2022-09-03T00:40:21;11.93;;;6.85;;
64342;SDS011;50675;53.530;-6.312;2022-09-03T00:43:15;11.63;;;6.20;;
64342;SDS011;50675;53.530;-6.312;2022-09-03T00:46:01;10.32;;;6.22;;
64342;SDS011;50675;53.530;-6.312;2022-09-03T00:48:47;15.73;;;6.97;;
64342;SDS011;50675;53.530;-6.312;2022-09-03T01:05:03;11.65;;;6.00;;
64342;SDS011;50675;53.530;-6.312;2022-09-03T01:07:43;10.00;;;5.70;;
64342;SDS011;50675;53.530;-6.312;2022-09-03T01:13:13;10.10;;;5.50;;
64342;SDS011;50675;53.530;-6.312;2022-09-03T01:21:38;12.27;;;6.30;;
64342;SDS011;50675;53.530;-6.312;2022-09-03T01:27:07;10.48;;;6.55;;
64342;SDS011;50675;53.530;-6.312;2022-09-03T01:43:16;13.00;;;7.30;;
64342;SDS011;50675;53.530;-6.312;2022-09-03T01:46:22;12.63;;;7.88;;
64342;SDS011;50675;53.530;-6.312;2022-09-03T01:49:00;14.40;;;7.55;;
64342;SDS011;50675;53.530;-6.312;2022-09-03T01:54:44;14.52;;;7.70;;
64342;SDS011;50675;53.530;-6.312;2022-09-03T02:02:38;15.13;;;9.93;;
64342;SDS011;50675;53.530;-6.312;2022-09-03T02:05:07;15.25;;;9.27;;
64342;SDS011;50675;53.530;-6.312;2022-09-03T02:07:34;13.82;;;9.13;;
64342;SDS011;50675;53.530;-6.312;2022-09-03T02:10:16;16.02;;;9.18;;
64342;SDS011;50675;53.530;-6.312;2022-09-03T02:12:55;16.75;;;9.68;;
64342;SDS011;50675;53.530;-6.312;2022-09-03T02:15:26;15.88;;;9.02;;
64342;SDS011;50675;53.530;-6.312;2022-09-03T02:17:53;16.10;;;9.48;;
64342;SDS011;50675;53.530;-6.312;2022-09-03T02:20:23;14.80;;;8.63;;
64342;SDS011;50675;53.530;-6.312;2022-09-03T02:22:52;12.82;;;7.68;;
64342;SDS011;50675;53.530;-6.312;2022-09-03T02:25:21;11.38;;;6.95;;
64342;SDS011;50675;53.530;-6.312;2022-09-03T02:27:53;9.38;;;5.65;;
64342;SDS011;50675;53.530;-6.312;2022-09-03T02:30:19;7.20;;;4.07;;
64342;SDS011;50675;53.530;-6.312;2022-09-03T02:32:45;6.75;;;3.63;;
64342;SDS011;50675;53.530;-6.312;2022-09-03T02:35:11;5.75;;;2.90;;
64342;SDS011;50675;53.530;-6.312;2022-09-03T02:37:37;4.88;;;2.75;;
64342;SDS011;50675;53.530;-6.312;2022-09-03T02:40:03;3.75;;;2.35;;
64342;SDS011;50675;53.530;-6.312;2022-09-03T02:42:33;4.78;;;2.10;;
64342;SDS011;50675;53.530;-6.312;2022-09-03T02:47:54;4.07;;;1.92;;
64342;SDS011;50675;53.530;-6.312;2022-09-03T02:50:21;3.40;;;1.80;;
64342;SDS011;50675;53.530;-6.312;2022-09-03T02:52:49;3.08;;;1.80;;
64342;SDS011;50675;53.530;-6.312;2022-09-03T02:55:15;3.15;;;1.80;;
64342;SDS011;50675;53.530;-6.312;2022-09-03T02:57:41;4.20;;;1.92;;
64342;SDS011;50675;53.530;-6.312;2022-09-03T03:00:07;3.42;;;1.73;;
64342;SDS011;50675;53.530;-6.312;2022-09-03T03:02:34;3.53;;;2.08;;
64342;SDS011;50675;53.530;-6.312;2022-09-03T03:05:00;3.67;;;1.63;;
64342;SDS011;50675;53.530;-6.312;2022-09-03T03:07:31;3.38;;;1.60;;
64342;SDS011;50675;53.530;-6.312;2022-09-03T03:10:02;3.20;;;1.85;;
64342;SDS011;50675;53.530;-6.312;2022-09-03T03:12:28;4.03;;;1.80;;
64342;SDS011;50675;53.530;-6.312;2022-09-03T03:15:00;5.50;;;1.73;;
64342;SDS011;50675;53.530;-6.312;2022-09-03T03:17:37;4.40;;;1.98;;
64342;SDS011;50675;53.530;-6.312;2022-09-03T03:20:04;3.25;;;1.85;;
64342;SDS011;50675;53.530;-6.312;2022-09-03T03:22:36;3.20;;;2.05;;
64342;SDS011;50675;53.530;-6.312;2022-09-03T03:25:09;4.78;;;1.80;;
64342;SDS011;50675;53.530;-6.312;2022-09-03T03:27:53;6.53;;;2.47;;
64342;SDS011;50675;53.530;-6.312;2022-09-03T03:30:31;3.13;;;1.67;;
64342;SDS011;50675;53.530;-6.312;2022-09-03T03:33:04;4.57;;;2.42;;
64342;SDS011;50675;53.530;-6.312;2022-09-03T03:35:38;4.65;;;2.15;;
64342;SDS011;50675;53.530;-6.312;2022-09-03T03:38:22;3.40;;;1.80;;
64342;SDS011;50675;53.530;-6.312;2022-09-03T03:41:10;3.92;;;2.13;;
64342;SDS011;50675;53.530;-6.312;2022-09-03T03:43:58;3.42;;;1.90;;
64342;SDS011;50675;53.530;-6.312;2022-09-03T03:46:40;5.93;;;2.80;;
64342;SDS011;50675;53.530;-6.312;2022-09-03T03:49:32;4.88;;;2.58;;
64342;SDS011;50675;53.530;-6.312;2022-09-03T03:52:23;5.47;;;2.95;;
64342;SDS011;50675;53.530;-6.312;2022-09-03T03:57:48;6.53;;;2.80;;
64342;SDS011;50675;53.530;-6.312;2022-09-03T04:00:42;5.55;;;3.42;;
64342;SDS011;50675;53.530;-6.312;2022-09-03T04:03:29;5.40;;;2.90;;
64342;SDS011;50675;53.530;-6.312;2022-09-03T04:10:03;6.35;;;3.42;;
64342;SDS011;50675;53.530;-6.312;2022-09-03T04:12:34;5.95;;;3.38;;
64342;SDS011;50675;53.530;-6.312;2022-09-03T04:15:06;7.05;;;3.65;;
64342;SDS011;50675;53.530;-6.312;2022-09-03T04:17:37;6.22;;;3.67;;
64342;SDS011;50675;53.530;-6.312;2022-09-03T04:20:09;7.15;;;3.28;;
64342;SDS011;50675;53.530;-6.312;2022-09-03T04:22:44;8.10;;;4.00;;
64342;SDS011;50675;53.530;-6.312;2022-09-03T04:25:19;7.38;;;4.10;;
64342;SDS011;50675;53.530;-6.312;2022-09-03T04:27:54;6.38;;;3.30;;
64342;SDS011;50675;53.530;-6.312;2022-09-03T04:30:38;6.65;;;3.58;;
64342;SDS011;50675;53.530;-6.312;2022-09-03T04:33:17;6.65;;;3.50;;
64342;SDS011;50675;53.530;-6.312;2022-09-03T04:35:43;8.38;;;3.40;;
64342;SDS011;50675;53.530;-6.312;2022-09-03T04:38:29;5.50;;;2.95;;
64342;SDS011;50675;53.530;-6.312;2022-09-03T04:40:59;7.03;;;3.42;;
64342;SDS011;50675;53.530;-6.312;2022-09-03T04:43:36;5.88;;;3.35;;
64342;SDS011;50675;53.530;-6.312;2022-09-03T04:46:06;6.53;;;2.97;;
64342;SDS011;50675;53.530;-6.312;2022-09-03T04:48:35;6.68;;;3.17;;
64342;SDS011;50675;53.530;-6.312;2022-09-03T04:51:13;5.45;;;3.22;;
64342;SDS011;50675;53.530;-6.312;2022-09-03T04:53:51;5.15;;;2.97;;
64342;SDS011;50675;53.530;-6.312;2022-09-03T04:56:25;5.65;;;3.35;;
64342;SDS011;50675;53.530;-6.312;2022-09-03T04:59:04;6.38;;;3.05;;
64342;SDS011;50675;53.530;-6.312;2022-09-03T05:01:38;5.30;;;2.90;;
64342;SDS011;50675;53.530;-6.312;2022-09-03T05:04:07;6.80;;;3.53;;
64342;SDS011;50675;53.530;-6.312;2022-09-03T05:06:37;6.35;;;3.60;;
64342;SDS011;50675;53.530;-6.312;2022-09-03T05:09:14;6.75;;;3.40;;
64342;SDS011;50675;53.530;-6.312;2022-09-03T05:11:51;5.15;;;3.17;;
64342;SDS011;50675;53.530;-6.312;2022-09-03T05:14:24;5.75;;;3.30;;
64342;SDS011;50675;53.530;-6.312;2022-09-03T05:16:58;6.07;;;3.92;;
64342;SDS011;50675;53.530;-6.312;2022-09-03T05:19:29;8.30;;;4.22;;
64342;SDS011;50675;53.530;-6.312;2022-09-03T05:22:13;7.68;;;4.10;;
64342;SDS011;50675;53.530;-6.312;2022-09-03T05:24:45;7.93;;;4.22;;
64342;SDS011;50675;53.530;-6.312;2022-09-03T05:27:16;7.18;;;4.18;;
64342;SDS011;50675;53.530;-6.312;2022-09-03T05:30:02;6.85;;;4.00;;
64342;SDS011;50675;53.530;-6.312;2022-09-03T05:32:43;7.70;;;3.40;;
64342;SDS011;50675;53.530;-6.312;2022-09-03T05:35:23;6.20;;;3.53;;
64342;SDS011;50675;53.530;-6.312;2022-09-03T05:37:54;5.95;;;3.28;;
64342;SDS011;50675;53.530;-6.312;2022-09-03T05:58:38;6.57;;;3.60;;
64342;SDS011;50675;53.530;-6.312;2022-09-03T06:05:52;7.13;;;3.00;;
64342;SDS011;50675;53.530;-6.312;2022-09-03T06:08:57;5.53;;;2.75;;
64342;SDS011;50675;53.530;-6.312;2022-09-03T06:15:05;2.97;;;1.90;;
64342;SDS011;50675;53.530;-6.312;2022-09-03T06:18:11;3.58;;;2.00;;
64342;SDS011;50675;53.530;-6.312;2022-09-03T06:21:30;3.28;;;1.92;;
64342;SDS011;50675;53.530;-6.312;2022-09-03T06:24:09;4.93;;;1.90;;
64342;SDS011;50675;53.530;-6.312;2022-09-03T06:27:14;3.00;;;1.92;;
64342;SDS011;50675;53.530;-6.312;2022-09-03T06:29:52;3.40;;;1.88;;
64342;SDS011;50675;53.530;-6.312;2022-09-03T06:32:49;3.38;;;1.85;;
64342;SDS011;50675;53.530;-6.312;2022-09-03T06:35:55;1.85;;;1.40;;
64342;SDS011;50675;53.530;-6.312;2022-09-03T06:38:56;3.13;;;1.70;;
64342;SDS011;50675;53.530;-6.312;2022-09-03T06:41:31;2.60;;;1.52;;
64342;SDS011;50675;53.530;-6.312;2022-09-03T06:44:24;2.65;;;1.40;;
64342;SDS011;50675;53.530;-6.312;2022-09-03T06:47:17;3.53;;;2.03;;
64342;SDS011;50675;53.530;-6.312;2022-09-03T06:50:26;2.28;;;1.35;;
64342;SDS011;50675;53.530;-6.312;2022-09-03T06:53:17;2.33;;;1.38;;
64342;SDS011;50675;53.530;-6.312;2022-09-03T06:56:11;2.33;;;1.35;;
64342;SDS011;50675;53.530;-6.312;2022-09-03T06:59:09;3.28;;;1.45;;
64342;SDS011;50675;53.530;-6.312;2022-09-03T07:02:16;2.90;;;1.55;;
64342;SDS011;50675;53.530;-6.312;2022-09-03T07:05:19;3.53;;;1.60;;
64342;SDS011;50675;53.530;-6.312;2022-09-03T07:08:12;3.30;;;1.58;;
64342;SDS011;50675;53.530;-6.312;2022-09-03T07:11:25;1.83;;;1.30;;
64342;SDS011;50675;53.530;-6.312;2022-09-03T07:14:07;1.83;;;1.30;;
64342;SDS011;50675;53.530;-6.312;2022-09-03T07:27:20;1.90;;;1.17;;
64342;SDS011;50675;53.530;-6.312;2022-09-03T07:30:39;1.70;;;1.13;;
64342;SDS011;50675;53.530;-6.312;2022-09-03T07:33:38;2.47;;;1.30;;
64342;SDS011;50675;53.530;-6.312;2022-09-03T07:40:19;1.63;;;1.10;;
64342;SDS011;50675;53.530;-6.312;2022-09-03T07:43:34;1.85;;;1.15;;
64342;SDS011;50675;53.530;-6.312;2022-09-03T07:50:56;2.67;;;1.25;;
64342;SDS011;50675;53.530;-6.312;2022-09-03T07:57:31;2.05;;;1.30;;
64342;SDS011;50675;53.530;-6.312;2022-09-03T08:00:09;2.83;;;1.50;;
64342;SDS011;50675;53.530;-6.312;2022-09-03T08:02:41;1.13;;;0.83;;
64342;SDS011;50675;53.530;-6.312;2022-09-03T08:05:10;2.22;;;1.30;;
64342;SDS011;50675;53.530;-6.312;2022-09-03T08:13:43;1.88;;;1.15;;
64342;SDS011;50675;53.530;-6.312;2022-09-03T08:17:20;2.45;;;1.40;;
64342;SDS011;50675;53.530;-6.312;2022-09-03T08:20:10;1.73;;;1.20;;
64342;SDS011;50675;53.530;-6.312;2022-09-03T08:23:04;2.80;;;1.45;;
64342;SDS011;50675;53.530;-6.312;2022-09-03T08:26:18;1.88;;;1.05;;
64342;SDS011;50675;53.530;-6.312;2022-09-03T08:29:37;2.00;;;1.10;;
64342;SDS011;50675;53.530;-6.312;2022-09-03T08:32:23;1.88;;;1.23;;
64342;SDS011;50675;53.530;-6.312;2022-09-03T08:35:23;3.20;;;1.08;;
64342;SDS011;50675;53.530;-6.312;2022-09-03T08:41:29;2.15;;;1.30;;
64342;SDS011;50675;53.530;-6.312;2022-09-03T09:55:56;3.65;;;1.95;;
64342;SDS011;50675;53.530;-6.312;2022-09-03T09:58:30;1.92;;;1.20;;
64342;SDS011;50675;53.530;-6.312;2022-09-03T10:01:10;1.75;;;1.30;;
64342;SDS011;50675;53.530;-6.312;2022-09-03T10:03:56;4.85;;;1.60;;
64342;SDS011;50675;53.530;-6.312;2022-09-03T10:06:28;1.65;;;1.20;;
64342;SDS011;50675;53.530;-6.312;2022-09-03T10:09:30;2.47;;;1.40;;
64342;SDS011;50675;53.530;-6.312;2022-09-03T10:12:25;1.60;;;1.00;;
64342;SDS011;50675;53.530;-6.312;2022-09-03T10:15:53;2.25;;;1.30;;
64342;SDS011;50675;53.530;-6.312;2022-09-03T10:22:32;3.78;;;1.35;;
64342;SDS011;50675;53.530;-6.312;2022-09-03T10:29:02;2.03;;;1.10;;
64342;SDS011;50675;53.530;-6.312;2022-09-03T10:32:01;3.33;;;1.27;;
64342;SDS011;50675;53.530;-6.312;2022-09-03T11:11:37;1.80;;;1.30;;
64342;SDS011;50675;53.530;-6.312;2022-09-03T11:14:29;2.30;;;1.50;;
64342;SDS011;50675;53.530;-6.312;2022-09-03T11:17:24;3.78;;;1.35;;
64342;SDS011;50675;53.530;-6.312;2022-09-03T11:19:57;2.85;;;1.70;;
64342;SDS011;50675;53.530;-6.312;2022-09-03T11:22:39;1.38;;;1.10;;
64342;SDS011;50675;53.530;-6.312;2022-09-03T11:25:24;2.17;;;1.27;;
64342;SDS011;50675;53.530;-6.312;2022-09-03T11:34:03;2.83;;;1.75;;
64342;SDS011;50675;53.530;-6.312;2022-09-03T11:36:40;3.25;;;1.83;;
64342;SDS011;50675;53.530;-6.312;2022-09-03T11:39:17;2.88;;;1.77;;
64342;SDS011;50675;53.530;-6.312;2022-09-03T11:42:00;1.70;;;1.27;;
64342;SDS011;50675;53.530;-6.312;2022-09-03T11:44:58;1.90;;;1.48;;
64342;SDS011;50675;53.530;-6.312;2022-09-03T11:47:43;4.88;;;2.17;;
64342;SDS011;50675;53.530;-6.312;2022-09-03T11:53:51;4.32;;;1.85;;
64342;SDS011;50675;53.530;-6.312;2022-09-03T11:56:23;3.95;;;2.05;;
64342;SDS011;50675;53.530;-6.312;2022-09-03T12:01:38;3.85;;;2.00;;
64342;SDS011;50675;53.530;-6.312;2022-09-03T12:04:09;4.22;;;2.10;;
64342;SDS011;50675;53.530;-6.312;2022-09-03T12:07:02;2.58;;;1.80;;
64342;SDS011;50675;53.530;-6.312;2022-09-03T12:09:54;3.13;;;1.77;;
64342;SDS011;50675;53.530;-6.312;2022-09-03T12:15:20;4.75;;;2.63;;
64342;SDS011;50675;53.530;-6.312;2022-09-03T12:18:10;5.40;;;2.25;;
64342;SDS011;50675;53.530;-6.312;2022-09-03T12:20:44;3.53;;;2.08;;
64342;SDS011;50675;53.530;-6.312;2022-09-03T12:26:21;4.85;;;2.03;;
64342;SDS011;50675;53.530;-6.312;2022-09-03T12:28:50;3.28;;;1.90;;
64342;SDS011;50675;53.530;-6.312;2022-09-03T12:33:56;3.83;;;2.10;;
64342;SDS011;50675;53.530;-6.312;2022-09-03T12:36:25;4.05;;;2.13;;
64342;SDS011;50675;53.530;-6.312;2022-09-03T12:39:07;4.28;;;2.10;;
64342;SDS011;50675;53.530;-6.312;2022-09-03T15:49:57;10.13;;;3.85;;
64342;SDS011;50675;53.530;-6.312;2022-09-03T16:08:45;2.88;;;1.45;;
64342;SDS011;50675;53.530;-6.312;2022-09-03T16:21:29;2.53;;;1.38;;
64342;SDS011;50675;53.530;-6.312;2022-09-03T16:24:57;5.38;;;1.48;;
64342;SDS011;50675;53.530;-6.312;2022-09-03T16:35:14;6.15;;;2.88;;
64342;SDS011;50675;53.530;-6.312;2022-09-03T16:40:49;12.43;;;3.30;;
64342;SDS011;50675;53.530;-6.312;2022-09-03T16:43:50;10.70;;;3.10;;
64342;SDS011;50675;53.530;-6.312;2022-09-03T16:46:29;13.20;;;3.55;;
64342;SDS011;50675;53.530;-6.312;2022-09-03T17:02:02;16.23;;;4.10;;
64342;SDS011;50675;53.530;-6.312;2022-09-03T17:10:02;11.93;;;3.45;;
64342;SDS011;50675;53.530;-6.312;2022-09-03T17:21:41;10.77;;;3.47;;
64342;SDS011;50675;53.530;-6.312;2022-09-03T17:36:27;12.68;;;4.70;;
64342;SDS011;50675;53.530;-6.312;2022-09-03T17:41:52;12.48;;;4.63;;
64342;SDS011;50675;53.530;-6.312;2022-09-03T17:49:43;15.40;;;4.75;;
64342;SDS011;50675;53.530;-6.312;2022-09-03T17:54:49;15.60;;;5.55;;
64342;SDS011;50675;53.530;-6.312;2022-09-03T18:00:08;15.57;;;4.57;;
64342;SDS011;50675;53.530;-6.312;2022-09-03T18:02:43;18.10;;;4.50;;
64342;SDS011;50675;53.530;-6.312;2022-09-03T18:13:14;17.50;;;4.53;;
64342;SDS011;50675;53.530;-6.312;2022-09-03T18:15:48;14.43;;;3.47;;
64342;SDS011;50675;53.530;-6.312;2022-09-03T18:18:28;9.43;;;2.90;;
64342;SDS011;50675;53.530;-6.312;2022-09-03T21:47:09;4.18;;;1.95;;
64342;SDS011;50675;53.530;-6.312;2022-09-03T22:01:08;3.88;;;1.95;;
64342;SDS011;50675;53.530;-6.312;2022-09-03T22:55:23;8.93;;;2.83;;
